Time;durP1;ratioP1;P1;durP2;ratioP2;P2;SDS_P1;SDS_P2;PMS_P1;PMS_P2;Temp;Humidity;BMP_temperature;BMP_pressure;BME280_temperature;BME280_humidity;BME280_pressure;Samples;Min_cycle;Max_cycle;Signal;HPM_P1;HPM_P2
2021/10/03 00:02:27;;;;;;;4.20;3.15;;;;;;;18.01;nan;99404.31;5065329;28;20090;-74
2021/10/03 00:04:54;;;;;;;4.15;3.38;;;;;;;17.99;nan;99401.84;5070262;28;20136;-74
2021/10/03 00:07:21;;;;;;;4.47;3.20;;;;;;;17.96;nan;99406.88;5070815;28;20044;-74
2021/10/03 00:09:48;;;;;;;3.72;3.17;;;;;;;17.84;nan;99406.81;5068627;28;20501;-74
2021/10/03 00:12:14;;;;;;;4.93;3.17;;;;;;;17.83;nan;99394.50;5052670;28;20044;-74
2021/10/03 00:14:40;;;;;;;3.70;2.67;;;;;;;17.89;nan;99398.13;5056952;28;20028;-74
2021/10/03 00:17:06;;;;;;;4.43;3.10;;;;;;;17.94;nan;99407.09;5065715;28;20043;-74
2021/10/03 00:19:32;;;;;;;4.25;2.85;;;;;;;18.02;nan;99401.44;5070413;28;20033;-75
2021/10/03 00:21:58;;;;;;;4.55;3.03;;;;;;;18.02;nan;99393.41;5051986;28;20035;-74
2021/10/03 00:24:26;;;;;;;5.18;2.90;;;;;;;18.31;nan;99398.13;5070352;28;20044;-74
2021/10/03 00:26:53;;;;;;;4.30;2.70;;;;;;;18.71;nan;99398.28;5055111;28;20449;-74
2021/10/03 00:29:19;;;;;;;4.30;2.70;;;;;;;19.09;nan;99397.81;5070792;28;20028;-74
2021/10/03 00:31:45;;;;;;;4.53;2.80;;;;;;;19.49;nan;99401.56;5052286;28;20413;-74
2021/10/03 00:34:10;;;;;;;3.72;2.70;;;;;;;19.78;nan;99393.56;5052307;28;20039;-74
2021/10/03 00:36:37;;;;;;;3.30;2.33;;;;;;;20.02;nan;99392.41;5064989;28;20046;-74
2021/10/03 00:39:03;;;;;;;5.20;2.63;;;;;;;20.21;nan;99395.66;5069966;28;20054;-74
2021/10/03 00:41:29;;;;;;;3.60;2.65;;;;;;;20.41;nan;99383.66;5068201;28;20032;-74
2021/10/03 00:43:55;;;;;;;3.28;2.30;;;;;;;20.50;nan;99388.38;5068828;28;20399;-74
2021/10/03 00:46:21;;;;;;;3.42;2.22;;;;;;;20.60;nan;99381.56;5053179;28;20043;-75
2021/10/03 00:48:47;;;;;;;3.55;2.70;;;;;;;20.67;nan;99385.72;5070030;28;20032;-75
2021/10/03 00:51:13;;;;;;;3.92;2.47;;;;;;;20.69;nan;99377.38;5070525;28;20048;-74
2021/10/03 00:53:40;;;;;;;4.00;2.90;;;;;;;20.69;nan;99380.91;5051889;28;20029;-75
2021/10/03 00:56:09;;;;;;;4.95;2.80;;;;;;;20.67;nan;99380.34;5069334;28;20374;-74
2021/10/03 00:58:35;;;;;;;4.28;2.55;;;;;;;20.62;nan;99382.94;5051638;28;20033;-74
2021/10/03 01:01:01;;;;;;;3.50;2.60;;;;;;;20.59;nan;99372.69;5069572;28;20028;-74
2021/10/03 01:03:27;;;;;;;4.07;2.80;;;;;;;20.56;nan;99373.19;5051921;28;20036;-74
2021/10/03 01:05:54;;;;;;;4.57;2.78;;;;;;;20.53;nan;99366.41;5051249;28;20041;-74
2021/10/03 01:08:20;;;;;;;5.55;2.63;;;;;;;20.52;nan;99361.25;5068261;28;20085;-73
2021/10/03 01:10:46;;;;;;;3.65;2.42;;;;;;;20.45;nan;99366.81;5049402;28;20394;-73
2021/10/03 01:13:23;;;;;;;3.30;2.50;;;;;;;20.48;nan;99369.00;5070671;28;20037;-73
2021/10/03 01:15:52;;;;;;;3.17;2.30;;;;;;;20.51;nan;99367.69;5054967;28;20098;-73
2021/10/03 01:18:20;;;;;;;4.15;2.20;;;;;;;20.49;nan;99359.06;5069162;28;20052;-73
2021/10/03 01:20:46;;;;;;;4.03;2.50;;;;;;;20.48;nan;99360.94;5051713;28;20033;-73
2021/10/03 01:23:13;;;;;;;4.38;2.60;;;;;;;20.37;nan;99359.16;5070054;28;20041;-74
2021/10/03 01:25:42;;;;;;;3.33;2.60;;;;;;;20.32;nan;99369.81;5069503;28;20062;-73
2021/10/03 01:28:09;;;;;;;3.20;2.55;;;;;;;20.13;nan;99361.19;5051696;28;20520;-73
2021/10/03 01:30:37;;;;;;;3.25;2.53;;;;;;;19.88;nan;99365.06;5078009;28;20504;-73
2021/10/03 01:33:04;;;;;;;3.72;2.63;;;;;;;19.68;nan;99360.13;5053624;28;20120;-75
2021/10/03 01:35:30;;;;;;;3.50;2.50;;;;;;;19.64;nan;99353.63;5050934;28;20037;-73
2021/10/03 01:37:56;;;;;;;3.58;2.20;;;;;;;19.70;nan;99344.63;5069437;28;20040;-73
2021/10/03 01:40:23;;;;;;;3.63;2.80;;;;;;;19.53;nan;99336.50;5050651;28;20055;-73
2021/10/03 01:42:52;;;;;;;3.70;2.47;;;;;;;19.62;nan;99336.94;5051827;28;20028;-73
2021/10/03 01:45:21;;;;;;;3.67;2.70;;;;;;;19.57;nan;99328.81;5051657;28;20143;-73
2021/10/03 01:48:06;;;;;;;3.78;2.63;;;;;;;19.57;nan;99325.28;5052350;28;20133;-73
2021/10/03 01:50:48;;;;;;;2.88;2.30;;;;;;;19.50;nan;99317.41;5048345;28;20041;-74
2021/10/03 01:53:19;;;;;;;3.15;2.50;;;;;;;19.46;nan;99310.91;5045310;28;20429;-74
2021/10/03 01:55:45;;;;;;;3.17;2.40;;;;;;;19.41;nan;99314.28;5050838;28;20036;-74
2021/10/03 01:58:17;;;;;;;3.65;2.70;;;;;;;19.29;nan;99317.03;5068782;28;20048;-74
2021/10/03 02:00:47;;;;;;;3.50;2.53;;;;;;;19.33;nan;99309.31;5050643;28;20082;-74
2021/10/03 02:03:13;;;;;;;3.38;2.50;;;;;;;19.41;nan;99313.50;5068845;28;20042;-74
2021/10/03 02:05:42;;;;;;;3.67;2.72;;;;;;;19.47;nan;99317.88;5068427;28;20432;-74
2021/10/03 02:08:10;;;;;;;3.28;2.58;;;;;;;19.56;nan;99305.72;5050495;28;20028;-74
2021/10/03 02:10:39;;;;;;;4.18;2.53;;;;;;;19.70;nan;99314.31;5067999;28;20460;-74
2021/10/03 02:13:08;;;;;;;4.93;2.50;;;;;;;19.86;nan;99310.03;5050557;28;20029;-74
2021/10/03 02:15:35;;;;;;;3.55;2.50;;;;;;;19.98;nan;99305.41;5072226;28;20439;-74
2021/10/03 02:18:10;;;;;;;4.13;2.45;;;;;;;20.08;nan;99302.88;5041514;28;20032;-75
2021/10/03 02:20:40;;;;;;;3.75;2.65;;;;;;;20.19;nan;99303.03;5048873;28;20554;-74
2021/10/03 02:23:08;;;;;;;3.85;2.65;;;;;;;20.24;nan;99293.19;5069328;28;20481;-74
2021/10/03 02:25:40;;;;;;;3.40;2.40;;;;;;;20.34;nan;99289.84;5050978;28;20037;-74
2021/10/03 02:28:07;;;;;;;3.40;2.40;;;;;;;20.36;nan;99288.56;5050698;28;20032;-74
2021/10/03 02:30:33;;;;;;;3.72;2.53;;;;;;;20.45;nan;99291.63;5050473;28;20037;-74
2021/10/03 02:32:58;;;;;;;3.55;2.33;;;;;;;20.52;nan;99286.06;5070601;28;20032;-74
2021/10/03 02:35:24;;;;;;;5.22;3.00;;;;;;;20.57;nan;99273.56;5072325;28;20520;-74
2021/10/03 02:37:50;;;;;;;3.38;2.20;;;;;;;20.69;nan;99278.00;5073000;28;20059;-74
2021/10/03 02:40:17;;;;;;;3.67;2.40;;;;;;;20.73;nan;99271.88;5072110;28;20032;-74
2021/10/03 02:42:43;;;;;;;3.95;2.30;;;;;;;20.81;nan;99270.66;5071489;28;20036;-74
2021/10/03 02:45:10;;;;;;;3.38;2.30;;;;;;;20.83;nan;99262.31;5072712;28;20028;-74
2021/10/03 02:47:35;;;;;;;4.10;2.30;;;;;;;20.87;nan;99275.00;5081576;28;20067;-74
2021/10/03 02:50:01;;;;;;;3.72;2.47;;;;;;;20.93;nan;99274.03;5071313;28;20036;-74
2021/10/03 02:52:26;;;;;;;;;;;;;;;20.88;nan;99268.59;5070864;28;20036;-74
2021/10/03 02:54:51;;;;;;;3.00;2.20;;;;;;;20.82;nan;99268.78;5053311;28;20191;-74
2021/10/03 02:57:16;;;;;;;3.50;2.30;;;;;;;20.84;nan;99266.66;5073325;28;20275;-74
2021/10/03 02:59:42;;;;;;;4.17;2.40;;;;;;;20.87;nan;99266.94;5074352;28;20120;-73
2021/10/03 03:02:07;;;;;;;3.65;2.45;;;;;;;20.91;nan;99267.28;5073739;28;20507;-73
2021/10/03 03:04:32;;;;;;;;;;;;;;;20.93;nan;99265.97;5074568;28;20040;-73
2021/10/03 03:06:58;;;;;;;3.47;2.22;;;;;;;20.91;nan;99262.72;5073414;28;19940;-73
2021/10/03 03:09:23;;;;;;;2.92;2.28;;;;;;;20.95;nan;99263.00;5072273;28;20131;-73
2021/10/03 03:11:49;;;;;;;4.57;2.40;;;;;;;20.98;nan;99257.16;5071877;28;20501;-73
2021/10/03 03:14:14;;;;;;;2.92;1.98;;;;;;;20.98;nan;99257.97;5072157;28;20064;-73
2021/10/03 03:16:46;;;;;;;3.08;2.38;;;;;;;21.04;nan;99258.00;5074922;28;20041;-73
2021/10/03 03:19:12;;;;;;;4.80;2.40;;;;;;;21.03;nan;99261.78;5071312;28;20044;-73
2021/10/03 03:21:38;;;;;;;3.60;2.30;;;;;;;21.07;nan;99254.81;5071695;28;20532;-74
2021/10/03 03:24:05;;;;;;;3.47;2.10;;;;;;;21.06;nan;99253.19;5070738;28;20123;-74
2021/10/03 03:26:30;;;;;;;5.35;2.35;;;;;;;21.10;nan;99252.44;5053976;28;20442;-74
2021/10/03 03:28:55;;;;;;;3.97;1.98;;;;;;;21.11;nan;99250.56;5079794;28;20104;-74
2021/10/03 03:31:21;;;;;;;2.70;1.92;;;;;;;21.05;nan;99252.41;5071255;28;20037;-74
2021/10/03 03:33:46;;;;;;;3.88;2.33;;;;;;;20.97;nan;99256.34;5071077;28;20060;-74
2021/10/03 03:36:12;;;;;;;3.35;2.22;;;;;;;20.96;nan;99248.53;5070520;28;20128;-74
2021/10/03 03:38:37;;;;;;;3.55;2.00;;;;;;;20.99;nan;99242.63;5072195;28;20033;-74
2021/10/03 03:41:05;;;;;;;2.85;2.08;;;;;;;20.96;nan;99240.47;5053134;28;20025;-75
2021/10/03 03:43:30;;;;;;;3.58;1.95;;;;;;;20.86;nan;99243.84;5071840;28;20086;-74
2021/10/03 03:45:55;;;;;;;3.40;2.30;;;;;;;20.87;nan;99242.78;5070939;28;20396;-74
2021/10/03 03:48:21;;;;;;;3.25;2.17;;;;;;;20.85;nan;99236.81;5071598;28;20045;-74
2021/10/03 03:50:46;;;;;;;2.75;2.00;;;;;;;20.89;nan;99232.59;5071073;28;20040;-74
2021/10/03 03:53:11;;;;;;;2.63;2.00;;;;;;;20.86;nan;99233.09;5053712;28;20035;-74
2021/10/03 03:55:37;;;;;;;2.92;2.10;;;;;;;20.83;nan;99227.41;5052709;28;20387;-74
2021/10/03 03:58:03;;;;;;;3.22;2.03;;;;;;;20.80;nan;99223.34;5071396;28;20127;-74
2021/10/03 04:00:28;;;;;;;3.00;2.22;;;;;;;20.80;nan;99228.72;5070498;28;20605;-74
2021/10/03 04:02:54;;;;;;;2.83;2.25;;;;;;;20.83;nan;99230.09;5071093;28;20570;-74
2021/10/03 04:05:19;;;;;;;2.90;2.03;;;;;;;20.84;nan;99224.47;5070762;28;20056;-74
2021/10/03 04:07:44;;;;;;;3.00;2.20;;;;;;;20.81;nan;99221.47;5070689;28;20047;-74
2021/10/03 04:10:10;;;;;;;2.90;2.10;;;;;;;20.81;nan;99221.47;5070435;28;20043;-74
2021/10/03 04:12:35;;;;;;;2.65;2.08;;;;;;;20.80;nan;99220.66;5070991;28;20047;-74
2021/10/03 04:15:00;;;;;;;2.83;2.10;;;;;;;20.80;nan;99223.34;5075662;28;20037;-75
2021/10/03 04:17:26;;;;;;;4.63;2.30;;;;;;;20.82;nan;99215.03;5070518;28;20040;-74
2021/10/03 04:19:51;;;;;;;2.85;2.00;;;;;;;20.84;nan;99208.34;5070988;28;20032;-74
2021/10/03 04:22:16;;;;;;;2.60;2.00;;;;;;;20.81;nan;99203.50;5070130;28;20032;-74
2021/10/03 04:24:42;;;;;;;3.55;2.10;;;;;;;20.85;nan;99214.53;5052683;28;20060;-74
2021/10/03 04:27:07;;;;;;;3.08;1.92;;;;;;;20.85;nan;99204.59;5070875;28;20493;-74
2021/10/03 04:29:33;;;;;;;3.55;2.40;;;;;;;20.85;nan;99201.09;5051149;28;20251;-74
2021/10/03 04:31:58;;;;;;;3.08;2.17;;;;;;;20.87;nan;99201.66;5070377;28;20037;-74
2021/10/03 04:34:23;;;;;;;2.90;2.20;;;;;;;20.94;nan;99196.91;5053830;28;20032;-75
2021/10/03 04:36:49;;;;;;;4.10;2.35;;;;;;;20.99;nan;99197.75;5070810;28;20028;-74
2021/10/03 04:39:14;;;;;;;3.25;2.25;;;;;;;21.04;nan;99194.31;5070725;28;20037;-74
2021/10/03 04:41:39;;;;;;;3.92;2.35;;;;;;;21.08;nan;99186.56;5052116;28;20027;-74
2021/10/03 04:44:04;;;;;;;3.85;2.20;;;;;;;21.11;nan;99196.81;5069797;28;20455;-74
2021/10/03 04:46:30;;;;;;;3.50;2.30;;;;;;;21.14;nan;99186.38;5070537;28;20133;-74
2021/10/03 04:48:55;;;;;;;3.53;2.40;;;;;;;21.20;nan;99179.16;5053232;28;20037;-74
2021/10/03 04:51:21;;;;;;;2.70;2.03;;;;;;;21.20;nan;99179.97;5052191;28;20067;-74
2021/10/03 04:53:46;;;;;;;2.90;2.17;;;;;;;21.21;nan;99181.59;5069940;28;20119;-74
2021/10/03 04:56:12;;;;;;;2.80;2.30;;;;;;;21.25;nan;99173.81;5069596;28;20056;-74
2021/10/03 04:58:37;;;;;;;3.72;2.22;;;;;;;21.26;nan;99178.16;5068909;28;20548;-74
2021/10/03 05:01:03;;;;;;;3.65;2.33;;;;;;;21.31;nan;99182.75;5070429;28;20440;-74
2021/10/03 05:03:28;;;;;;;3.70;2.15;;;;;;;21.31;nan;99180.03;5070479;28;20507;-74
2021/10/03 05:05:53;;;;;;;2.80;2.22;;;;;;;21.34;nan;99172.28;5069158;28;20037;-75
2021/10/03 05:08:19;;;;;;;3.03;2.05;;;;;;;21.37;nan;99170.97;5069905;28;20033;-74
2021/10/03 05:10:45;;;;;;;3.00;2.05;;;;;;;21.43;nan;99178.06;5051533;28;20045;-74
2021/10/03 05:13:11;;;;;;;3.05;2.10;;;;;;;21.44;nan;99170.78;5069126;28;20074;-74
2021/10/03 05:15:36;;;;;;;4.10;2.22;;;;;;;21.48;nan;99167.34;5052527;28;20439;-75
2021/10/03 05:18:02;;;;;;;3.08;2.10;;;;;;;21.48;nan;99166.53;5051733;28;20499;-74
2021/10/03 05:20:27;;;;;;;4.65;2.20;;;;;;;21.51;nan;99163.31;5069603;28;20028;-74
2021/10/03 05:22:52;;;;;;;3.10;2.10;;;;;;;21.49;nan;99165.44;5053935;28;20082;-74
2021/10/03 05:25:18;;;;;;;3.50;2.20;;;;;;;21.46;nan;99158.72;5069234;28;20491;-74
2021/10/03 05:27:44;;;;;;;3.60;2.00;;;;;;;21.47;nan;99167.59;5047645;28;20048;-75
2021/10/03 05:30:10;;;;;;;3.33;2.40;;;;;;;21.52;nan;99162.25;5045911;28;20091;-74
2021/10/03 05:32:35;;;;;;;2.83;2.05;;;;;;;21.56;nan;99158.78;5052738;28;20032;-74
2021/10/03 05:35:00;;;;;;;2.50;1.98;;;;;;;21.57;nan;99156.91;5080354;28;20082;-74
2021/10/03 05:37:26;;;;;;;4.25;2.20;;;;;;;21.58;nan;99158.53;5073252;28;20401;-75
2021/10/03 05:39:51;;;;;;;3.80;2.20;;;;;;;21.61;nan;99153.44;5051267;28;20044;-75
2021/10/03 05:42:17;;;;;;;2.78;2.10;;;;;;;21.60;nan;99159.09;5050796;28;20043;-74
2021/10/03 05:44:42;;;;;;;3.35;1.60;;;;;;;21.59;nan;99157.44;5070357;28;20043;-74
2021/10/03 05:47:07;;;;;;;3.10;2.30;;;;;;;21.61;nan;99155.31;5070561;28;20024;-74
2021/10/03 05:49:33;;;;;;;3.85;2.20;;;;;;;21.67;nan;99154.31;5070753;28;20543;-74
2021/10/03 05:51:58;;;;;;;2.70;1.95;;;;;;;21.76;nan;99158.13;5069896;28;20036;-75
2021/10/03 05:54:23;;;;;;;3.15;2.00;;;;;;;21.76;nan;99152.75;5068446;28;20036;-74
2021/10/03 05:56:49;;;;;;;2.65;2.00;;;;;;;21.74;nan;99162.16;5050977;28;20380;-74
2021/10/03 05:59:14;;;;;;;3.47;2.30;;;;;;;21.76;nan;99165.38;5067837;28;20066;-74
2021/10/03 06:01:40;;;;;;;2.78;2.00;;;;;;;21.80;nan;99172.66;5069484;28;20078;-75
2021/10/03 06:04:07;;;;;;;3.03;1.90;;;;;;;21.80;nan;99180.75;5072595;28;20059;-75
2021/10/03 06:06:32;;;;;;;2.50;1.80;;;;;;;21.84;nan;99176.47;5064046;28;20463;-74
2021/10/03 06:08:57;;;;;;;3.20;2.20;;;;;;;21.81;nan;99176.19;5069951;28;20046;-74
2021/10/03 06:11:22;;;;;;;3.15;2.17;;;;;;;21.83;nan;99179.41;5071963;28;20124;-74
2021/10/03 06:13:48;;;;;;;3.13;2.10;;;;;;;21.82;nan;99189.38;5053680;28;20080;-74
2021/10/03 06:16:13;;;;;;;3.05;2.00;;;;;;;21.75;nan;99186.09;5070986;28;20044;-74
2021/10/03 06:18:38;;;;;;;3.83;2.35;;;;;;;21.73;nan;99192.81;5071207;28;20032;-75
2021/10/03 06:21:11;;;;;;;4.00;2.30;;;;;;;21.72;nan;99188.50;5071568;28;20033;-74
2021/10/03 06:23:36;;;;;;;3.03;2.13;;;;;;;21.78;nan;99199.03;5071800;28;20044;-74
2021/10/03 06:26:02;;;;;;;3.00;2.13;;;;;;;21.76;nan;99194.97;5070944;28;20028;-74
2021/10/03 06:28:27;;;;;;;3.08;2.00;;;;;;;21.77;nan;99202.78;5072266;28;20056;-74
2021/10/03 06:30:53;;;;;;;2.72;2.00;;;;;;;21.79;nan;99197.16;5070330;28;20039;-74
2021/10/03 06:33:18;;;;;;;2.70;1.90;;;;;;;21.77;nan;99200.09;5073122;28;20397;-74
2021/10/03 06:35:43;;;;;;;3.08;2.20;;;;;;;21.71;nan;99201.13;5072444;28;20433;-74
2021/10/03 06:38:09;;;;;;;4.10;2.17;;;;;;;21.69;nan;99202.44;5070590;28;20036;-74
2021/10/03 06:40:34;;;;;;;2.90;2.10;;;;;;;21.67;nan;99193.84;5052971;28;20024;-74
2021/10/03 06:43:00;;;;;;;3.38;2.22;;;;;;;21.63;nan;99199.72;5071166;28;20036;-74
2021/10/03 06:45:25;;;;;;;2.40;1.80;;;;;;;21.64;nan;99203.22;5071202;28;20143;-74
2021/10/03 06:47:50;;;;;;;3.35;2.10;;;;;;;21.68;nan;99211.59;5072087;28;20312;-75
2021/10/03 06:50:17;;;;;;;3.55;2.22;;;;;;;21.72;nan;99204.66;5052733;28;20118;-75
2021/10/03 06:52:42;;;;;;;4.85;2.30;;;;;;;21.69;nan;99203.28;5072366;28;20029;-74
2021/10/03 06:55:08;;;;;;;3.42;2.15;;;;;;;21.67;nan;99205.41;5073782;28;20044;-74
2021/10/03 06:57:33;;;;;;;3.00;2.10;;;;;;;21.68;nan;99211.59;5071755;28;20056;-74
2021/10/03 07:00:00;;;;;;;2.70;2.00;;;;;;;21.66;nan;99219.13;5069969;28;20551;-75
2021/10/03 07:02:28;;;;;;;2.80;2.00;;;;;;;21.64;nan;99216.66;5070867;28;20040;-75
2021/10/03 07:04:53;;;;;;;2.50;1.85;;;;;;;21.59;nan;99222.00;5071438;28;20123;-75
2021/10/03 07:07:20;;;;;;;3.15;2.30;;;;;;;21.61;nan;99226.06;5017186;28;1067624;-74
2021/10/03 07:09:45;;;;;;;3.47;2.13;;;;;;;21.65;nan;99223.69;5075386;28;20041;-75
2021/10/03 07:12:11;;;;;;;3.67;2.17;;;;;;;21.63;nan;99228.50;5070881;28;20043;-74
2021/10/03 07:14:37;;;;;;;4.05;2.10;;;;;;;21.65;nan;99237.16;5076070;28;20583;-74
2021/10/03 07:17:02;;;;;;;2.90;2.10;;;;;;;21.62;nan;99229.59;5072049;28;20485;-74
2021/10/03 07:19:28;;;;;;;6.43;2.10;;;;;;;21.64;nan;99230.13;5071834;28;20036;-74
2021/10/03 07:21:53;;;;;;;3.75;2.13;;;;;;;21.64;nan;99243.56;5072262;28;20390;-74
2021/10/03 07:24:18;;;;;;;3.20;1.98;;;;;;;21.60;nan;99242.47;5055174;28;20462;-74
2021/10/03 07:26:44;;;;;;;2.85;2.00;;;;;;;21.63;nan;99250.03;5072006;28;20040;-74
2021/10/03 07:29:09;;;;;;;3.45;1.90;;;;;;;21.72;nan;99251.19;5071540;28;20055;-74
2021/10/03 07:31:35;;;;;;;4.00;1.90;;;;;;;21.78;nan;99252.03;5071979;28;20551;-74
2021/10/03 07:34:00;;;;;;;4.72;2.10;;;;;;;21.87;nan;99252.38;5056858;28;20124;-74
2021/10/03 07:36:26;;;;;;;2.55;1.75;;;;;;;21.96;nan;99264.31;5073233;28;20043;-75
2021/10/03 07:38:51;;;;;;;3.55;1.90;;;;;;;22.04;nan;99256.53;5072250;28;20476;-75
2021/10/03 07:41:17;;;;;;;3.78;1.83;;;;;;;22.06;nan;99258.97;5053758;28;20032;-74
2021/10/03 07:43:43;;;;;;;2.92;1.90;;;;;;;22.10;nan;99262.00;5071712;28;20489;-74
2021/10/03 07:46:09;;;;;;;3.08;1.80;;;;;;;22.09;nan;99265.72;5070852;28;20409;-74
2021/10/03 07:48:35;;;;;;;2.38;1.80;;;;;;;22.11;nan;99264.41;5072970;28;20444;-73
2021/10/03 07:51:00;;;;;;;2.45;1.70;;;;;;;22.11;nan;99266.28;5069129;28;20032;-73
2021/10/03 07:53:26;;;;;;;3.05;1.80;;;;;;;22.17;nan;99267.97;5072142;28;20068;-73
2021/10/03 07:55:51;;;;;;;2.20;1.80;;;;;;;22.21;nan;99263.69;5070935;28;20032;-75
2021/10/03 07:58:17;;;;;;;2.27;1.63;;;;;;;22.25;nan;99262.09;5052823;28;20036;-73
2021/10/03 08:00:42;;;;;;;2.30;1.77;;;;;;;22.21;nan;99259.09;5070100;28;20767;-73
2021/10/03 08:03:07;;;;;;;2.33;1.73;;;;;;;22.20;nan;99256.66;5071775;28;20063;-73
2021/10/03 08:05:33;;;;;;;2.70;1.92;;;;;;;22.18;nan;99256.91;5070115;28;20501;-74
2021/10/03 08:08:04;;;;;;;3.83;2.03;;;;;;;22.23;nan;99256.97;5070625;28;20028;-74
2021/10/03 08:10:29;;;;;;;2.80;1.70;;;;;;;22.22;nan;99252.66;5071076;28;20075;-75
2021/10/03 08:12:55;;;;;;;2.92;1.73;;;;;;;22.29;nan;99257.84;5069951;28;20064;-74
2021/10/03 08:15:20;;;;;;;2.08;1.50;;;;;;;22.26;nan;99255.63;5072946;28;20408;-73
2021/10/03 08:17:46;;;;;;;2.47;1.92;;;;;;;22.24;nan;99261.31;5071918;28;20028;-74
2021/10/03 08:20:11;;;;;;;3.00;2.05;;;;;;;22.22;nan;99270.72;5070680;28;20326;-73
2021/10/03 08:22:37;;;;;;;2.40;1.90;;;;;;;22.16;nan;99260.94;5072016;28;20036;-73
2021/10/03 08:25:05;;;;;;;2.67;1.85;;;;;;;22.11;nan;99259.03;5072583;28;20037;-73
2021/10/03 08:27:32;;;;;;;2.38;1.80;;;;;;;22.07;nan;99260.59;5071991;28;20276;-73
2021/10/03 08:29:57;;;;;;;3.08;1.95;;;;;;;22.05;nan;99260.88;5070786;28;20074;-73
2021/10/03 08:32:23;;;;;;;2.00;1.60;;;;;;;22.10;nan;99268.19;5069850;28;20430;-73
2021/10/03 08:34:48;;;;;;;3.60;2.20;;;;;;;22.06;nan;99280.53;5075877;28;20282;-73
2021/10/03 08:37:13;;;;;;;2.63;1.80;;;;;;;22.10;nan;99270.06;5071472;28;20039;-73
2021/10/03 08:39:39;;;;;;;3.20;2.00;;;;;;;22.13;nan;99278.41;5071112;28;20063;-73
2021/10/03 08:42:04;;;;;;;3.15;1.83;;;;;;;22.16;nan;99266.31;5072273;28;20037;-73
2021/10/03 08:44:31;;;;;;;3.17;2.03;;;;;;;22.16;nan;99275.19;5071022;28;20032;-73
2021/10/03 08:46:57;;;;;;;3.75;1.90;;;;;;;22.19;nan;99276.56;5071939;28;20028;-73
2021/10/03 08:49:22;;;;;;;2.45;1.90;;;;;;;22.26;nan;99280.72;5073454;28;20044;-73
2021/10/03 08:51:48;;;;;;;2.58;1.90;;;;;;;22.27;nan;99284.22;5071049;28;20029;-74
2021/10/03 08:54:16;;;;;;;2.63;1.65;;;;;;;22.36;nan;99282.66;5070716;28;20037;-73
2021/10/03 08:56:42;;;;;;;3.10;1.80;;;;;;;22.36;nan;99288.03;5070831;28;20039;-73
2021/10/03 08:59:07;;;;;;;3.20;1.80;;;;;;;22.38;nan;99287.75;5070125;28;20040;-73
2021/10/03 09:01:49;;;;;;;2.53;1.80;;;;;;;22.43;nan;99303.97;5069827;28;20029;-74
2021/10/03 09:04:37;;;;;;;2.92;1.80;;;;;;;22.37;nan;99292.34;5063681;28;20044;-73
2021/10/03 09:07:09;;;;;;;3.10;1.90;;;;;;;22.40;nan;99289.13;5070074;28;20032;-73
2021/10/03 09:09:58;;;;;;;2.28;1.70;;;;;;;22.32;nan;99286.94;5068626;28;20131;-74
2021/10/03 09:12:33;;;;;;;2.17;1.60;;;;;;;22.32;nan;99291.50;5059743;28;20568;-73
2021/10/03 09:15:03;;;;;;;3.45;1.83;;;;;;;22.34;nan;99289.38;5072248;28;20084;-74
2021/10/03 09:17:31;;;;;;;2.55;1.73;;;;;;;22.15;nan;99295.13;5066849;28;20040;-73
2021/10/03 09:20:18;;;;;;;3.78;1.55;;;;;;;22.34;nan;99300.94;5072137;28;20044;-74
2021/10/03 09:22:58;;;;;;;2.67;1.70;;;;;;;22.43;nan;99303.97;5070238;28;20035;-74
2021/10/03 09:25:31;;;;;;;2.00;1.42;;;;;;;22.39;nan;99302.88;5055273;28;20105;-73
2021/10/03 09:27:57;;;;;;;3.08;1.95;;;;;;;22.46;nan;99315.03;5069990;28;20036;-74
2021/10/03 09:30:22;;;;;;;2.53;1.83;;;;;;;22.50;nan;99309.13;5068930;28;20029;-74
2021/10/03 09:32:59;;;;;;;2.45;1.60;;;;;;;22.51;nan;99305.38;5070442;28;20401;-73
2021/10/03 09:35:30;;;;;;;2.80;1.60;;;;;;;22.53;nan;99304.03;5069831;28;20541;-73
2021/10/03 09:37:56;;;;;;;;;;;;;;;22.47;nan;99310.44;5069806;28;20529;-73
2021/10/03 09:40:23;;;;;;;2.88;1.85;;;;;;;22.49;nan;99297.53;5069168;28;19931;-73
2021/10/03 09:42:52;;;;;;;2.40;1.50;;;;;;;22.44;nan;99294.81;5069607;28;20033;-74
2021/10/03 09:45:24;;;;;;;2.70;1.63;;;;;;;22.43;nan;99293.22;5069435;28;20024;-74
2021/10/03 09:47:58;;;;;;;;;;;;;;;22.43;nan;99288.63;5053074;28;20553;-74
2021/10/03 09:50:25;;;;;;;2.63;1.60;;;;;;;22.47;nan;99281.63;5050391;28;19989;-73
2021/10/03 09:52:50;;;;;;;3.90;1.75;;;;;;;22.42;nan;99283.50;5077507;28;20404;-74
2021/10/03 09:55:17;;;;;;;3.17;1.90;;;;;;;22.40;nan;99282.94;5068419;28;20033;-74
2021/10/03 09:57:43;;;;;;;4.05;1.80;;;;;;;22.41;nan;99292.66;5068922;28;20029;-74
2021/10/03 10:00:09;;;;;;;2.22;1.67;;;;;;;22.46;nan;99287.28;5068618;28;20520;-74
2021/10/03 10:02:35;;;;;;;2.63;1.70;;;;;;;22.47;nan;99284.31;5068198;28;20438;-73
2021/10/03 10:05:00;;;;;;;2.50;1.73;;;;;;;22.50;nan;99283.00;5068087;28;20029;-74
2021/10/03 10:07:26;;;;;;;2.70;1.90;;;;;;;22.52;nan;99278.16;5051157;28;20536;-74
2021/10/03 10:09:52;;;;;;;2.00;1.50;;;;;;;22.51;nan;99287.31;5065688;28;20079;-74
2021/10/03 10:12:23;;;;;;;3.90;1.98;;;;;;;22.57;nan;99299.75;5068945;28;20052;-73
2021/10/03 10:14:59;;;;;;;2.45;1.85;;;;;;;22.61;nan;99300.84;5067327;28;20437;-74
2021/10/03 10:17:25;;;;;;;2.15;1.52;;;;;;;22.71;nan;99312.75;5069367;28;20037;-74
2021/10/03 10:19:51;;;;;;;2.20;1.60;;;;;;;22.80;nan;99316.56;5069098;28;20427;-74
2021/10/03 10:22:19;;;;;;;3.47;1.90;;;;;;;22.80;nan;99316.56;5067755;28;20343;-74
2021/10/03 10:24:45;;;;;;;3.85;1.92;;;;;;;22.81;nan;99321.72;5068989;28;20352;-74
2021/10/03 10:27:32;;;;;;;2.40;1.63;;;;;;;22.87;nan;99330.63;5069648;28;20283;-73
2021/10/03 10:29:58;;;;;;;3.28;1.80;;;;;;;22.92;nan;99327.94;5069773;28;20063;-74
2021/10/03 10:32:31;;;;;;;2.42;1.65;;;;;;;22.97;nan;99319.88;5068846;28;20040;-74
2021/10/03 10:35:08;;;;;;;2.45;1.55;;;;;;;22.98;nan;99326.94;5068647;28;20040;-73
2021/10/03 10:37:57;;;;;;;2.90;1.80;;;;;;;23.11;nan;99326.44;5069671;28;20366;-73
2021/10/03 10:40:22;;;;;;;2.38;1.60;;;;;;;23.15;nan;99332.13;5054435;28;20048;-73
2021/10/03 10:42:50;;;;;;;2.60;1.80;;;;;;;23.19;nan;99325.16;5066670;28;20036;-73
2021/10/03 10:45:27;;;;;;;3.53;1.92;;;;;;;23.29;nan;99321.66;5050897;28;20437;-73
2021/10/03 10:48:11;;;;;;;3.05;1.90;;;;;;;23.28;nan;99336.22;5069362;28;20040;-74
2021/10/03 10:50:41;;;;;;;2.78;1.98;;;;;;;23.36;nan;99313.31;5049870;28;20044;-74
2021/10/03 10:53:15;;;;;;;3.15;1.70;;;;;;;23.45;nan;99314.41;5069074;28;20112;-74
2021/10/03 10:55:40;;;;;;;2.67;1.70;;;;;;;23.48;nan;99303.91;5071354;28;20412;-74
2021/10/03 10:58:08;;;;;;;2.95;2.03;;;;;;;23.49;nan;99316.31;5072156;28;20028;-74
2021/10/03 11:00:47;;;;;;;2.42;1.52;;;;;;;23.60;nan;99314.47;5071553;28;20401;-74
2021/10/03 11:03:12;;;;;;;3.47;1.80;;;;;;;23.54;nan;99310.91;5071825;28;20051;-74
2021/10/03 11:05:39;;;;;;;2.13;1.70;;;;;;;23.42;nan;99301.47;5072162;28;20029;-74
2021/10/03 11:08:14;;;;;;;4.68;1.75;;;;;;;23.51;nan;99295.28;5072655;28;20036;-74
2021/10/03 11:11:09;;;;;;;2.42;1.65;;;;;;;23.57;nan;99297.97;5072159;28;20040;-74
2021/10/03 11:13:44;;;;;;;2.42;1.60;;;;;;;23.69;nan;99299.38;5063777;28;20112;-74
2021/10/03 11:16:35;;;;;;;2.25;1.55;;;;;;;23.87;nan;99299.94;5054596;28;20039;-74
2021/10/03 11:19:03;;;;;;;2.87;1.60;;;;;;;24.01;nan;99295.63;5071653;28;20508;-74
2021/10/03 11:21:41;;;;;;;3.30;1.60;;;;;;;24.07;nan;99299.91;5071601;28;20344;-74
2021/10/03 11:24:10;;;;;;;2.17;1.55;;;;;;;24.18;nan;99289.94;5063818;28;20575;-74
2021/10/03 11:26:58;;;;;;;2.72;1.80;;;;;;;24.21;nan;99283.97;5067191;28;20032;-74
2021/10/03 11:29:35;;;;;;;2.33;1.70;;;;;;;24.28;nan;99295.31;5052976;28;20032;-74
2021/10/03 11:32:03;;;;;;;3.58;1.77;;;;;;;24.18;nan;99295.34;5075615;28;20068;-74
2021/10/03 11:34:28;;;;;;;2.40;1.60;;;;;;;24.12;nan;99297.25;5071071;28;20033;-74
2021/10/03 11:36:54;;;;;;;2.17;1.60;;;;;;;24.09;nan;99288.84;5071399;28;20073;-74
2021/10/03 11:39:33;;;;;;;2.60;1.67;;;;;;;24.15;nan;99285.09;5070919;28;20223;-74
2021/10/03 11:41:59;;;;;;;2.40;1.70;;;;;;;24.16;nan;99275.88;5074174;28;20235;-74
2021/10/03 11:44:24;;;;;;;3.00;1.80;;;;;;;24.16;nan;99265.88;5075219;28;20400;-74
2021/10/03 11:47:03;;;;;;;2.42;1.80;;;;;;;24.26;nan;99259.66;5071048;28;20032;-74
2021/10/03 11:49:30;;;;;;;2.50;1.80;;;;;;;24.18;nan;99252.13;5071585;28;20033;-74
2021/10/03 11:51:57;;;;;;;1.90;1.50;;;;;;;24.00;nan;99249.97;5070075;28;20912;-74
2021/10/03 11:54:44;;;;;;;2.65;1.77;;;;;;;23.91;nan;99245.13;5049626;28;20090;-74